Springdale, AR

2:16 PM CST on December 06, 2016 (GMT -0600)
N.W. Springdale | | Change Station

Elev 1302 ft 36.20 °N, 94.16 °W | Updated 9 seconds ago

Mostly Cloudy
Mostly Cloudy
43.6 °F
Feels Like 39 °F
N
9.0
Wind Variable Wind from NE
Gusts 9.0 mph

Today
High -- | Low -- °F
--% Chance of Precip.
Yesterday
High -- | Low -- °F
Precip. -- in
Pressure 30.01 in
Visibility 10.0 miles
Clouds Mostly Cloudy 15000 ft
Windchill 39 °F
Dew Point 36 °F
Humidity 75%
Rainfall 0.00 in
Snow Depth Not available.
7:14 AM 5:01 PM
Waxing Crescent, 44% visible
METAR KASG 061948Z 35007KT 10SM BKN150 06/00 A3001
Pressure 30.01 in
Visibility 10.0 miles
Clouds Mostly Cloudy 15000 ft
Windchill 39 °F
Dew Point 36 °F
Humidity 75%
Rainfall 0.00 in
Snow Depth Not available.
7:14 AM 5:01 PM
Waxing Crescent, 44% visible
METAR KASG 061948Z 35007KT 10SM BKN150 06/00 A3001

10-Day Weather Forecast

Almanac

Astronomy

Dec. 06, 2016 Rise Set
Actual Time
Civil Twilight
Nautical Twilight
Astronomical Twilight
Moon
Length of Visible Light
Length of Day
Tomorrow will be .
, % of the Moon is Illuminated

Today's Extremes

State Highs State Lows

Community

WunderPhotos

Upload Photos

1,956,020 photos uploaded!

WunderBlog® & News

Nearby

Air Quality

  Air Quality AQ Index Pollutant
Not available.

Snow Depth

Station Depth Elevation

Earthquake Activity

City Distance Mag. Time & Date
Minimum magnitude displayed is 2.5.

Coastal Water Temperatures

Place Temperature

Stations

Nearby Weather Stations

Station Location Temp. Windchill Dew Point Humidity Wind Precip. Elev Updated Type
                   

Watches & Warnings

There are currently no watches in effect.